sensor_id;sensor_type;location;lat;lon;timestamp;pressure;altitude;pressure_sealevel;temperature;humidity
9774;BME280;4926;42.670;23.316;2023-11-18T00:01:01;93869.81;;;6.92;100.00
9774;BME280;4926;42.670;23.316;2023-11-18T00:03:33;93874.31;;;6.91;100.00
9774;BME280;4926;42.670;23.316;2023-11-18T00:05:59;93873.31;;;6.87;100.00
9774;BME280;4926;42.670;23.316;2023-11-18T00:08:27;93886.53;;;6.87;100.00
9774;BME280;4926;42.670;23.316;2023-11-18T00:10:53;93868.63;;;6.79;100.00
9774;BME280;4926;42.670;23.316;2023-11-18T00:13:20;93867.66;;;6.70;100.00
9774;BME280;4926;42.670;23.316;2023-11-18T00:15:47;93868.22;;;6.67;100.00
9774;BME280;4926;42.670;23.316;2023-11-18T00:18:14;93888.38;;;6.63;100.00
9774;BME280;4926;42.670;23.316;2023-11-18T00:20:44;93900.50;;;6.64;100.00
9774;BME280;4926;42.670;23.316;2023-11-18T00:23:11;93904.22;;;6.63;100.00
9774;BME280;4926;42.670;23.316;2023-11-18T00:25:38;93900.31;;;6.55;100.00
9774;BME280;4926;42.670;23.316;2023-11-18T00:28:06;93875.69;;;6.60;100.00
9774;BME280;4926;42.670;23.316;2023-11-18T00:30:33;93855.31;;;6.60;100.00
9774;BME280;4926;42.670;23.316;2023-11-18T00:33:00;93856.34;;;6.64;100.00
9774;BME280;4926;42.670;23.316;2023-11-18T00:35:27;93856.59;;;6.68;100.00
9774;BME280;4926;42.670;23.316;2023-11-18T00:37:58;93865.84;;;6.65;100.00
9774;BME280;4926;42.670;23.316;2023-11-18T00:40:25;93865.09;;;6.60;100.00
9774;BME280;4926;42.670;23.316;2023-11-18T00:42:57;93863.03;;;6.57;100.00
9774;BME280;4926;42.670;23.316;2023-11-18T00:45:24;93884.41;;;6.60;100.00
9774;BME280;4926;42.670;23.316;2023-11-18T00:47:51;93869.41;;;6.51;100.00
9774;BME280;4926;42.670;23.316;2023-11-18T00:50:18;93873.47;;;6.43;100.00
9774;BME280;4926;42.670;23.316;2023-11-18T00:52:44;93871.63;;;6.39;100.00
9774;BME280;4926;42.670;23.316;2023-11-18T00:55:16;93883.00;;;6.39;100.00
9774;BME280;4926;42.670;23.316;2023-11-18T00:57:44;93877.47;;;6.36;100.00
9774;BME280;4926;42.670;23.316;2023-11-18T01:00:14;93878.81;;;6.33;100.00
9774;BME280;4926;42.670;23.316;2023-11-18T01:02:44;93882.28;;;6.29;100.00
9774;BME280;4926;42.670;23.316;2023-11-18T01:05:12;93870.16;;;6.28;100.00
9774;BME280;4926;42.670;23.316;2023-11-18T01:07:42;93877.00;;;6.29;100.00
9774;BME280;4926;42.670;23.316;2023-11-18T01:10:10;93881.59;;;6.18;100.00
9774;BME280;4926;42.670;23.316;2023-11-18T01:12:38;93886.06;;;6.18;100.00
9774;BME280;4926;42.670;23.316;2023-11-18T01:15:05;93885.59;;;6.11;100.00
9774;BME280;4926;42.670;23.316;2023-11-18T01:17:32;93892.75;;;6.10;100.00
9774;BME280;4926;42.670;23.316;2023-11-18T01:19:59;93901.44;;;6.11;100.00
9774;BME280;4926;42.670;23.316;2023-11-18T01:22:28;93906.44;;;6.17;100.00
9774;BME280;4926;42.670;23.316;2023-11-18T01:24:55;93901.19;;;6.12;100.00
9774;BME280;4926;42.670;23.316;2023-11-18T01:27:23;93900.41;;;6.12;100.00
9774;BME280;4926;42.670;23.316;2023-11-18T01:29:52;93900.13;;;6.13;100.00
9774;BME280;4926;42.670;23.316;2023-11-18T01:32:19;93903.31;;;6.10;100.00
9774;BME280;4926;42.670;23.316;2023-11-18T01:34:46;93899.41;;;6.03;100.00
9774;BME280;4926;42.670;23.316;2023-11-18T01:37:15;93899.97;;;6.00;100.00
9774;BME280;4926;42.670;23.316;2023-11-18T01:39:42;93901.88;;;5.89;100.00
9774;BME280;4926;42.670;23.316;2023-11-18T01:42:09;93902.06;;;5.98;100.00
9774;BME280;4926;42.670;23.316;2023-11-18T01:44:37;93897.88;;;5.92;100.00
9774;BME280;4926;42.670;23.316;2023-11-18T01:47:06;93889.47;;;5.80;100.00
9774;BME280;4926;42.670;23.316;2023-11-18T01:49:37;93901.09;;;5.84;100.00
9774;BME280;4926;42.670;23.316;2023-11-18T01:52:05;93898.44;;;5.89;100.00
9774;BME280;4926;42.670;23.316;2023-11-18T01:54:34;93901.03;;;5.94;100.00
9774;BME280;4926;42.670;23.316;2023-11-18T01:57:03;93896.78;;;5.98;100.00
9774;BME280;4926;42.670;23.316;2023-11-18T01:59:31;93903.63;;;5.99;100.00
9774;BME280;4926;42.670;23.316;2023-11-18T02:02:00;93892.31;;;5.98;100.00
9774;BME280;4926;42.670;23.316;2023-11-18T02:04:29;93903.41;;;5.95;100.00
9774;BME280;4926;42.670;23.316;2023-11-18T02:06:56;93906.88;;;5.91;100.00
9774;BME280;4926;42.670;23.316;2023-11-18T02:09:29;93914.03;;;5.85;100.00
9774;BME280;4926;42.670;23.316;2023-11-18T02:12:00;93912.53;;;5.64;100.00
9774;BME280;4926;42.670;23.316;2023-11-18T02:14:39;93911.72;;;5.63;100.00
9774;BME280;4926;42.670;23.316;2023-11-18T02:17:09;93904.88;;;5.62;100.00
9774;BME280;4926;42.670;23.316;2023-11-18T02:19:43;93897.50;;;5.59;100.00
9774;BME280;4926;42.670;23.316;2023-11-18T02:22:15;93906.75;;;5.57;100.00
9774;BME280;4926;42.670;23.316;2023-11-18T02:24:45;93919.19;;;5.51;100.00
9774;BME280;4926;42.670;23.316;2023-11-18T02:27:13;93906.56;;;5.43;100.00
9774;BME280;4926;42.670;23.316;2023-11-18T02:29:42;93912.38;;;5.40;100.00
9774;BME280;4926;42.670;23.316;2023-11-18T02:32:17;93902.63;;;5.36;100.00
9774;BME280;4926;42.670;23.316;2023-11-18T02:34:52;93912.94;;;5.32;100.00
9774;BME280;4926;42.670;23.316;2023-11-18T02:37:25;93901.84;;;5.30;100.00
9774;BME280;4926;42.670;23.316;2023-11-18T02:40:04;93887.63;;;5.26;100.00
9774;BME280;4926;42.670;23.316;2023-11-18T02:42:35;93907.09;;;5.35;100.00
9774;BME280;4926;42.670;23.316;2023-11-18T02:45:05;93908.16;;;5.34;100.00
9774;BME280;4926;42.670;23.316;2023-11-18T02:47:33;93928.50;;;5.29;100.00
9774;BME280;4926;42.670;23.316;2023-11-18T02:50:00;93918.00;;;5.14;100.00
9774;BME280;4926;42.670;23.316;2023-11-18T02:52:35;93918.81;;;5.14;100.00
9774;BME280;4926;42.670;23.316;2023-11-18T02:55:04;93926.72;;;5.04;100.00
9774;BME280;4926;42.670;23.316;2023-11-18T02:57:35;93927.28;;;5.01;100.00
9774;BME280;4926;42.670;23.316;2023-11-18T03:00:02;93921.97;;;5.06;100.00
9774;BME280;4926;42.670;23.316;2023-11-18T03:02:30;93925.69;;;5.00;100.00
9774;BME280;4926;42.670;23.316;2023-11-18T03:04:57;93927.81;;;4.98;100.00
9774;BME280;4926;42.670;23.316;2023-11-18T03:07:24;93935.97;;;5.02;100.00
9774;BME280;4926;42.670;23.316;2023-11-18T03:09:52;93938.88;;;4.95;100.00
9774;BME280;4926;42.670;23.316;2023-11-18T03:12:21;93936.78;;;4.92;100.00
9774;BME280;4926;42.670;23.316;2023-11-18T03:14:49;93939.44;;;4.87;100.00
9774;BME280;4926;42.670;23.316;2023-11-18T03:17:16;93952.09;;;4.85;100.00
9774;BME280;4926;42.670;23.316;2023-11-18T03:19:43;93975.00;;;4.85;100.00
9774;BME280;4926;42.670;23.316;2023-11-18T03:22:10;93980.03;;;4.76;100.00
9774;BME280;4926;42.670;23.316;2023-11-18T03:24:56;93968.97;;;4.69;100.00
9774;BME280;4926;42.670;23.316;2023-11-18T03:27:24;93970.56;;;4.65;100.00
9774;BME280;4926;42.670;23.316;2023-11-18T03:29:53;93969.25;;;4.63;100.00
9774;BME280;4926;42.670;23.316;2023-11-18T03:32:20;93952.63;;;4.62;100.00
9774;BME280;4926;42.670;23.316;2023-11-18T03:34:47;93957.91;;;4.52;100.00
9774;BME280;4926;42.670;23.316;2023-11-18T03:37:14;93963.19;;;4.42;100.00
9774;BME280;4926;42.670;23.316;2023-11-18T03:39:40;93960.81;;;4.40;100.00
9774;BME280;4926;42.670;23.316;2023-11-18T03:42:08;93972.13;;;4.41;100.00
9774;BME280;4926;42.670;23.316;2023-11-18T03:44:35;93990.06;;;4.49;100.00
9774;BME280;4926;42.670;23.316;2023-11-18T03:47:04;93977.91;;;4.48;100.00
9774;BME280;4926;42.670;23.316;2023-11-18T03:49:32;94013.25;;;4.47;100.00
9774;BME280;4926;42.670;23.316;2023-11-18T03:52:02;93979.78;;;4.42;100.00
9774;BME280;4926;42.670;23.316;2023-11-18T03:54:32;93962.38;;;4.21;100.00
9774;BME280;4926;42.670;23.316;2023-11-18T03:57:00;93964.22;;;4.26;100.00
9774;BME280;4926;42.670;23.316;2023-11-18T03:59:27;93957.66;;;4.33;100.00
9774;BME280;4926;42.670;23.316;2023-11-18T04:01:56;93965.00;;;4.26;100.00
9774;BME280;4926;42.670;23.316;2023-11-18T04:04:24;93977.91;;;4.18;100.00
9774;BME280;4926;42.670;23.316;2023-11-18T04:06:51;93989.22;;;4.18;100.00
9774;BME280;4926;42.670;23.316;2023-11-18T04:09:18;93980.00;;;4.21;100.00
9774;BME280;4926;42.670;23.316;2023-11-18T04:11:45;93988.44;;;4.18;100.00
9774;BME280;4926;42.670;23.316;2023-11-18T04:14:12;93982.66;;;4.21;100.00
9774;BME280;4926;42.670;23.316;2023-11-18T04:16:38;93985.78;;;4.13;100.00
9774;BME280;4926;42.670;23.316;2023-11-18T04:19:05;93987.63;;;4.07;100.00
9774;BME280;4926;42.670;23.316;2023-11-18T04:21:34;94008.97;;;4.11;100.00
9774;BME280;4926;42.670;23.316;2023-11-18T04:24:03;94000.25;;;4.05;100.00
9774;BME280;4926;42.670;23.316;2023-11-18T04:26:31;93999.47;;;4.10;100.00
9774;BME280;4926;42.670;23.316;2023-11-18T04:28:58;94004.72;;;4.05;100.00
9774;BME280;4926;42.670;23.316;2023-11-18T04:31:29;94007.38;;;4.10;100.00
9774;BME280;4926;42.670;23.316;2023-11-18T04:33:56;94015.53;;;4.08;100.00
9774;BME280;4926;42.670;23.316;2023-11-18T04:36:24;94003.16;;;4.09;100.00
9774;BME280;4926;42.670;23.316;2023-11-18T04:38:53;94009.47;;;4.08;100.00
9774;BME280;4926;42.670;23.316;2023-11-18T04:41:26;94008.16;;;4.00;100.00
9774;BME280;4926;42.670;23.316;2023-11-18T04:43:53;94010.50;;;3.97;100.00
9774;BME280;4926;42.670;23.316;2023-11-18T04:46:23;94001.53;;;3.93;100.00
9774;BME280;4926;42.670;23.316;2023-11-18T04:48:51;94010.25;;;3.98;100.00
9774;BME280;4926;42.670;23.316;2023-11-18T04:51:18;94018.41;;;3.97;100.00
9774;BME280;4926;42.670;23.316;2023-11-18T04:53:46;94012.06;;;3.93;100.00
9774;BME280;4926;42.670;23.316;2023-11-18T04:56:15;94028.41;;;3.90;100.00
9774;BME280;4926;42.670;23.316;2023-11-18T04:58:43;94018.13;;;3.93;100.00
9774;BME280;4926;42.670;23.316;2023-11-18T05:01:12;93989.13;;;3.78;100.00
9774;BME280;4926;42.670;23.316;2023-11-18T05:03:39;94016.78;;;3.81;100.00
9774;BME280;4926;42.670;23.316;2023-11-18T05:06:06;94008.88;;;3.86;100.00
9774;BME280;4926;42.670;23.316;2023-11-18T05:08:36;93987.84;;;3.91;100.00
9774;BME280;4926;42.670;23.316;2023-11-18T05:11:03;93985.72;;;3.88;100.00
9774;BME280;4926;42.670;23.316;2023-11-18T05:13:32;93986.50;;;3.83;100.00
9774;BME280;4926;42.670;23.316;2023-11-18T05:15:59;93987.28;;;3.74;100.00
9774;BME280;4926;42.670;23.316;2023-11-18T05:18:26;93982.56;;;3.81;100.00
9774;BME280;4926;42.670;23.316;2023-11-18T05:20:55;93989.16;;;3.88;100.00
9774;BME280;4926;42.670;23.316;2023-11-18T05:23:22;93990.19;;;3.87;100.00
9774;BME280;4926;42.670;23.316;2023-11-18T05:25:49;93998.38;;;3.91;100.00
9774;BME280;4926;42.670;23.316;2023-11-18T05:28:17;93985.47;;;3.89;100.00
9774;BME280;4926;42.670;23.316;2023-11-18T05:30:46;93975.69;;;3.80;100.00
9774;BME280;4926;42.670;23.316;2023-11-18T05:33:13;93974.13;;;3.79;100.00
9774;BME280;4926;42.670;23.316;2023-11-18T05:35:43;93972.47;;;3.63;100.00
9774;BME280;4926;42.670;23.316;2023-11-18T05:38:16;93976.47;;;3.70;100.00
9774;BME280;4926;42.670;23.316;2023-11-18T05:40:44;93975.66;;;3.70;100.00
9774;BME280;4926;42.670;23.316;2023-11-18T05:43:21;93987.72;;;3.61;100.00
9774;BME280;4926;42.670;23.316;2023-11-18T05:45:51;93978.78;;;3.52;100.00
9774;BME280;4926;42.670;23.316;2023-11-18T05:48:37;93989.25;;;3.47;100.00
9774;BME280;4926;42.670;23.316;2023-11-18T05:51:07;93989.53;;;3.50;100.00
9774;BME280;4926;42.670;23.316;2023-11-18T05:53:34;93994.56;;;3.52;100.00
9774;BME280;4926;42.670;23.316;2023-11-18T05:56:02;93991.13;;;3.51;100.00
9774;BME280;4926;42.670;23.316;2023-11-18T05:58:30;93986.13;;;3.50;100.00
9774;BME280;4926;42.670;23.316;2023-11-18T06:00:58;93982.72;;;3.54;100.00
9774;BME280;4926;42.670;23.316;2023-11-18T06:03:25;93989.34;;;3.62;100.00
9774;BME280;4926;42.670;23.316;2023-11-18T06:05:52;93994.59;;;3.62;100.00
9774;BME280;4926;42.670;23.316;2023-11-18T06:08:19;93994.06;;;3.65;100.00
9774;BME280;4926;42.670;23.316;2023-11-18T06:10:48;94008.56;;;3.67;100.00
9774;BME280;4926;42.670;23.316;2023-11-18T06:13:22;94004.03;;;3.58;100.00
9774;BME280;4926;42.670;23.316;2023-11-18T06:15:53;94010.94;;;3.69;100.00
9774;BME280;4926;42.670;23.316;2023-11-18T06:18:22;94009.88;;;3.70;100.00
9774;BME280;4926;42.670;23.316;2023-11-18T06:20:49;94005.16;;;3.72;100.00
9774;BME280;4926;42.670;23.316;2023-11-18T06:23:18;94005.66;;;3.59;100.00
9774;BME280;4926;42.670;23.316;2023-11-18T06:25:47;94005.13;;;3.62;100.00
9774;BME280;4926;42.670;23.316;2023-11-18T06:28:13;94010.66;;;3.65;100.00
9774;BME280;4926;42.670;23.316;2023-11-18T06:30:40;94001.94;;;3.60;100.00
9774;BME280;4926;42.670;23.316;2023-11-18T06:33:10;93988.25;;;3.58;100.00
9774;BME280;4926;42.670;23.316;2023-11-18T06:35:41;93992.72;;;3.57;100.00
9774;BME280;4926;42.670;23.316;2023-11-18T06:38:08;93990.84;;;3.48;100.00
9774;BME280;4926;42.670;23.316;2023-11-18T06:40:38;94000.63;;;3.62;100.00
9774;BME280;4926;42.670;23.316;2023-11-18T06:43:05;94007.22;;;3.60;100.00
9774;BME280;4926;42.670;23.316;2023-11-18T06:45:36;93993.00;;;3.66;100.00
9774;BME280;4926;42.670;23.316;2023-11-18T06:48:05;93996.75;;;3.80;100.00
9774;BME280;4926;42.670;23.316;2023-11-18T06:50:32;94014.16;;;3.91;99.48
9774;BME280;4926;42.670;23.316;2023-11-18T06:53:01;94005.47;;;3.90;98.81
9774;BME280;4926;42.670;23.316;2023-11-18T06:55:31;94019.97;;;3.88;95.55
9774;BME280;4926;42.670;23.316;2023-11-18T06:58:00;94016.53;;;3.97;95.81
9774;BME280;4926;42.670;23.316;2023-11-18T07:00:27;94029.69;;;3.87;95.00
9774;BME280;4926;42.670;23.316;2023-11-18T07:02:54;94026.53;;;3.85;95.14
9774;BME280;4926;42.670;23.316;2023-11-18T07:05:22;94021.59;;;3.99;95.39
9774;BME280;4926;42.670;23.316;2023-11-18T07:07:49;94003.66;;;4.01;93.56
9774;BME280;4926;42.670;23.316;2023-11-18T07:10:18;94020.25;;;4.01;93.28
9774;BME280;4926;42.670;23.316;2023-11-18T07:12:46;94010.53;;;4.12;93.45
9774;BME280;4926;42.670;23.316;2023-11-18T07:15:20;94018.97;;;4.04;94.23
9774;BME280;4926;42.670;23.316;2023-11-18T07:17:49;94014.19;;;3.96;93.80
9774;BME280;4926;42.670;23.316;2023-11-18T07:20:17;94026.31;;;4.02;94.87
9774;BME280;4926;42.670;23.316;2023-11-18T07:22:47;94014.47;;;4.04;95.13
9774;BME280;4926;42.670;23.316;2023-11-18T07:25:14;94033.16;;;4.03;94.62
9774;BME280;4926;42.670;23.316;2023-11-18T07:27:44;94027.88;;;3.93;94.48
9774;BME280;4926;42.670;23.316;2023-11-18T07:30:11;94030.75;;;3.86;95.50
9774;BME280;4926;42.670;23.316;2023-11-18T07:32:39;94033.59;;;3.80;96.52
9774;BME280;4926;42.670;23.316;2023-11-18T07:35:07;94035.19;;;3.81;96.40
9774;BME280;4926;42.670;23.316;2023-11-18T07:37:35;94062.84;;;3.83;95.99
9774;BME280;4926;42.670;23.316;2023-11-18T07:40:08;94063.06;;;3.77;95.30
9774;BME280;4926;42.670;23.316;2023-11-18T07:42:37;94051.50;;;3.78;96.81
9774;BME280;4926;42.670;23.316;2023-11-18T07:45:06;94074.13;;;3.79;96.75
9774;BME280;4926;42.670;23.316;2023-11-18T07:47:43;94052.00;;;3.75;97.77
9774;BME280;4926;42.670;23.316;2023-11-18T07:50:10;94040.97;;;3.78;97.75
9774;BME280;4926;42.670;23.316;2023-11-18T07:52:38;94054.16;;;3.83;97.04
9774;BME280;4926;42.670;23.316;2023-11-18T07:55:06;94040.44;;;3.71;95.55
9774;BME280;4926;42.670;23.316;2023-11-18T07:57:39;94039.91;;;3.74;97.25
9774;BME280;4926;42.670;23.316;2023-11-18T08:00:12;94041.19;;;3.66;97.64
9774;BME280;4926;42.670;23.316;2023-11-18T08:02:40;94046.41;;;3.61;97.54
9774;BME280;4926;42.670;23.316;2023-11-18T08:05:07;94037.47;;;3.62;97.08
9774;BME280;4926;42.670;23.316;2023-11-18T08:07:35;94040.88;;;3.58;97.96
9774;BME280;4926;42.670;23.316;2023-11-18T08:10:04;94041.94;;;3.57;96.30
9774;BME280;4926;42.670;23.316;2023-11-18T08:12:32;94051.97;;;3.65;95.41
9774;BME280;4926;42.670;23.316;2023-11-18T08:15:00;94040.16;;;3.67;94.93
9774;BME280;4926;42.670;23.316;2023-11-18T08:17:30;94046.47;;;3.71;94.35
9774;BME280;4926;42.670;23.316;2023-11-18T08:19:57;94051.50;;;3.78;94.59
9774;BME280;4926;42.670;23.316;2023-11-18T08:22:25;94045.22;;;3.84;93.44
9774;BME280;4926;42.670;23.316;2023-11-18T08:24:55;94078.94;;;3.92;93.70
9774;BME280;4926;42.670;23.316;2023-11-18T08:27:22;94055.22;;;3.87;92.23
9774;BME280;4926;42.670;23.316;2023-11-18T08:29:48;94043.13;;;3.86;92.68
9774;BME280;4926;42.670;23.316;2023-11-18T08:32:21;94041.53;;;3.85;92.69
9774;BME280;4926;42.670;23.316;2023-11-18T08:34:51;94044.94;;;3.80;93.50
9774;BME280;4926;42.670;23.316;2023-11-18T08:37:20;94060.97;;;3.79;92.59
9774;BME280;4926;42.670;23.316;2023-11-18T08:39:46;94067.59;;;3.81;93.04
9774;BME280;4926;42.670;23.316;2023-11-18T08:42:13;94071.00;;;3.87;93.11
9774;BME280;4926;42.670;23.316;2023-11-18T08:44:44;94055.50;;;3.90;92.22
9774;BME280;4926;42.670;23.316;2023-11-18T08:47:16;94073.13;;;3.85;93.99
9774;BME280;4926;42.670;23.316;2023-11-18T08:49:44;94061.81;;;3.89;94.83
9774;BME280;4926;42.670;23.316;2023-11-18T08:52:13;94075.75;;;3.85;92.70
9774;BME280;4926;42.670;23.316;2023-11-18T08:54:39;94076.50;;;3.80;93.18
9774;BME280;4926;42.670;23.316;2023-11-18T08:57:27;94067.03;;;3.74;92.47
9774;BME280;4926;42.670;23.316;2023-11-18T09:00:05;94073.06;;;3.75;92.66
9774;BME280;4926;42.670;23.316;2023-11-18T09:02:34;94072.00;;;3.71;93.03
9774;BME280;4926;42.670;23.316;2023-11-18T09:05:03;94065.16;;;3.70;94.22
9774;BME280;4926;42.670;23.316;2023-11-18T09:07:39;94068.31;;;3.72;94.03
9774;BME280;4926;42.670;23.316;2023-11-18T09:10:13;94079.94;;;3.76;93.55
9774;BME280;4926;42.670;23.316;2023-11-18T09:12:42;94069.94;;;3.78;93.52
9774;BME280;4926;42.670;23.316;2023-11-18T09:15:10;94066.25;;;3.79;94.19
9774;BME280;4926;42.670;23.316;2023-11-18T09:17:43;94065.19;;;3.80;93.78
9774;BME280;4926;42.670;23.316;2023-11-18T09:20:14;94067.03;;;3.79;93.19
9774;BME280;4926;42.670;23.316;2023-11-18T09:22:44;94070.41;;;3.70;93.67
9774;BME280;4926;42.670;23.316;2023-11-18T09:25:11;94065.19;;;3.80;93.73
9774;BME280;4926;42.670;23.316;2023-11-18T09:27:38;94064.16;;;3.86;93.70
9774;BME280;4926;42.670;23.316;2023-11-18T09:30:06;94061.81;;;3.89;92.92
9774;BME280;4926;42.670;23.316;2023-11-18T09:32:39;94053.63;;;3.86;93.18
9774;BME280;4926;42.670;23.316;2023-11-18T09:35:09;94050.50;;;3.94;92.28
9774;BME280;4926;42.670;23.316;2023-11-18T09:37:38;94059.47;;;3.93;92.71
9774;BME280;4926;42.670;23.316;2023-11-18T09:40:09;94048.66;;;3.89;93.17
9774;BME280;4926;42.670;23.316;2023-11-18T09:42:40;94066.56;;;3.92;92.14
9774;BME280;4926;42.670;23.316;2023-11-18T09:45:09;94089.97;;;3.89;92.45
9774;BME280;4926;42.670;23.316;2023-11-18T09:47:46;94069.44;;;3.91;93.12
9774;BME280;4926;42.670;23.316;2023-11-18T09:50:16;94076.34;;;3.97;93.13
9774;BME280;4926;42.670;23.316;2023-11-18T09:52:49;94054.22;;;4.03;92.53
9774;BME280;4926;42.670;23.316;2023-11-18T09:55:38;94062.94;;;4.03;91.14
9774;BME280;4926;42.670;23.316;2023-11-18T09:58:14;94060.00;;;4.00;90.25
9774;BME280;4926;42.670;23.316;2023-11-18T10:00:42;94067.34;;;3.93;90.78
9774;BME280;4926;42.670;23.316;2023-11-18T10:03:16;94056.84;;;3.98;90.92
9774;BME280;4926;42.670;23.316;2023-11-18T10:05:43;94040.78;;;3.94;90.93
9774;BME280;4926;42.670;23.316;2023-11-18T10:08:13;94052.63;;;3.92;90.24
9774;BME280;4926;42.670;23.316;2023-11-18T10:10:44;94065.00;;;3.91;90.24
9774;BME280;4926;42.670;23.316;2023-11-18T10:13:11;94052.56;;;3.87;89.92
9774;BME280;4926;42.670;23.316;2023-11-18T10:15:47;94041.00;;;3.88;89.35
9774;BME280;4926;42.670;23.316;2023-11-18T10:18:21;94062.63;;;3.90;89.91
9774;BME280;4926;42.670;23.316;2023-11-18T10:20:49;94054.72;;;3.90;90.41
9774;BME280;4926;42.670;23.316;2023-11-18T10:23:20;94062.91;;;3.98;89.55
9774;BME280;4926;42.670;23.316;2023-11-18T10:25:52;94071.06;;;3.97;89.04
9774;BME280;4926;42.670;23.316;2023-11-18T10:28:25;94062.66;;;4.05;88.52
9774;BME280;4926;42.670;23.316;2023-11-18T10:30:53;94067.13;;;4.04;87.39
9774;BME280;4926;42.670;23.316;2023-11-18T10:33:19;94052.13;;;4.05;87.12
9774;BME280;4926;42.670;23.316;2023-11-18T10:35:52;94067.66;;;4.01;86.29
9774;BME280;4926;42.670;23.316;2023-11-18T10:38:21;94070.28;;;3.96;86.73
9774;BME280;4926;42.670;23.316;2023-11-18T10:40:55;94085.81;;;4.03;86.97
9774;BME280;4926;42.670;23.316;2023-11-18T10:43:23;94068.19;;;3.98;86.97
9774;BME280;4926;42.670;23.316;2023-11-18T10:46:04;94063.19;;;4.02;86.10
9774;BME280;4926;42.670;23.316;2023-11-18T10:48:38;94060.81;;;4.00;86.34
9774;BME280;4926;42.670;23.316;2023-11-18T10:51:09;94053.66;;;3.96;86.43
9774;BME280;4926;42.670;23.316;2023-11-18T10:53:40;94073.19;;;4.05;86.35
9774;BME280;4926;42.670;23.316;2023-11-18T10:56:20;94058.44;;;3.99;87.14
9774;BME280;4926;42.670;23.316;2023-11-18T10:58:52;94050.56;;;4.04;87.15
9774;BME280;4926;42.670;23.316;2023-11-18T11:01:30;94062.38;;;4.01;86.60
9774;BME280;4926;42.670;23.316;2023-11-18T11:03:58;94052.09;;;3.95;86.65
9774;BME280;4926;42.670;23.316;2023-11-18T11:06:26;94048.41;;;4.01;86.70
9774;BME280;4926;42.670;23.316;2023-11-18T11:08:56;94032.88;;;3.99;84.90
9774;BME280;4926;42.670;23.316;2023-11-18T11:11:26;94055.03;;;4.03;85.57
9774;BME280;4926;42.670;23.316;2023-11-18T11:13:57;94038.13;;;3.89;85.81
9774;BME280;4926;42.670;23.316;2023-11-18T11:16:28;94049.72;;;3.93;85.45
9774;BME280;4926;42.670;23.316;2023-11-18T11:19:03;94042.31;;;3.90;85.71
9774;BME280;4926;42.670;23.316;2023-11-18T11:21:37;94052.38;;;3.93;86.17
9774;BME280;4926;42.670;23.316;2023-11-18T11:24:20;94052.63;;;3.97;86.76
9774;BME280;4926;42.670;23.316;2023-11-18T11:27:05;94060.00;;;4.00;86.53
9774;BME280;4926;42.670;23.316;2023-11-18T11:29:50;94040.53;;;4.01;86.35
9774;BME280;4926;42.670;23.316;2023-11-18T11:32:25;94038.69;;;4.06;86.12
9774;BME280;4926;42.670;23.316;2023-11-18T11:34:56;94039.50;;;4.07;85.92
9774;BME280;4926;42.670;23.316;2023-11-18T11:37:32;94038.44;;;4.13;85.76
9774;BME280;4926;42.670;23.316;2023-11-18T11:40:02;94047.94;;;4.09;86.32
9774;BME280;4926;42.670;23.316;2023-11-18T11:42:39;94048.66;;;3.94;85.61
9774;BME280;4926;42.670;23.316;2023-11-18T11:45:08;94037.84;;;3.86;86.66
9774;BME280;4926;42.670;23.316;2023-11-18T11:47:46;94031.03;;;3.90;86.64
9774;BME280;4926;42.670;23.316;2023-11-18T11:50:21;94032.56;;;3.76;87.08
9774;BME280;4926;42.670;23.316;2023-11-18T11:53:02;94047.56;;;3.85;87.74
9774;BME280;4926;42.670;23.316;2023-11-18T11:55:37;94036.28;;;3.90;87.35
9774;BME280;4926;42.670;23.316;2023-11-18T11:58:26;94018.91;;;3.94;86.79
9774;BME280;4926;42.670;23.316;2023-11-18T12:00:54;94031.84;;;3.95;87.07
9774;BME280;4926;42.670;23.316;2023-11-18T12:03:22;94025.78;;;3.95;87.06
9774;BME280;4926;42.670;23.316;2023-11-18T12:05:49;94042.66;;;4.04;87.10
9774;BME280;4926;42.670;23.316;2023-11-18T12:08:21;94018.44;;;4.07;86.46
9774;BME280;4926;42.670;23.316;2023-11-18T12:10:52;94032.13;;;4.09;86.39
9774;BME280;4926;42.670;23.316;2023-11-18T12:13:21;94038.44;;;4.13;86.23
9774;BME280;4926;42.670;23.316;2023-11-18T12:15:56;94043.22;;;4.11;86.31
9774;BME280;4926;42.670;23.316;2023-11-18T12:18:24;94033.19;;;4.13;85.44
9774;BME280;4926;42.670;23.316;2023-11-18T12:20:51;94034.78;;;4.14;85.63
9774;BME280;4926;42.670;23.316;2023-11-18T12:23:21;94030.81;;;4.06;86.95
9774;BME280;4926;42.670;23.316;2023-11-18T12:25:50;94033.44;;;4.06;86.81
9774;BME280;4926;42.670;23.316;2023-11-18T12:28:21;94033.16;;;4.03;87.16
9774;BME280;4926;42.670;23.316;2023-11-18T12:30:53;94027.91;;;4.08;87.13
9774;BME280;4926;42.670;23.316;2023-11-18T12:33:24;94014.53;;;4.19;86.62
9774;BME280;4926;42.670;23.316;2023-11-18T12:42:08;94022.97;;;4.31;85.40
9774;BME280;4926;42.670;23.316;2023-11-18T12:44:59;94021.13;;;4.32;85.55
9774;BME280;4926;42.670;23.316;2023-11-18T12:47:33;94026.38;;;4.22;85.68
9774;BME280;4926;42.670;23.316;2023-11-18T12:50:08;94050.06;;;4.27;86.33
9774;BME280;4926;42.670;23.316;2023-11-18T12:52:43;94046.41;;;4.23;87.34
9774;BME280;4926;42.670;23.316;2023-11-18T12:55:13;94044.78;;;4.22;87.63
9774;BME280;4926;42.670;23.316;2023-11-18T12:57:46;94055.06;;;4.13;87.17
9774;BME280;4926;42.670;23.316;2023-11-18T13:00:14;94070.56;;;4.05;88.16
9774;BME280;4926;42.670;23.316;2023-11-18T13:02:52;94051.03;;;3.96;87.57
9774;BME280;4926;42.670;23.316;2023-11-18T13:05:20;94038.94;;;4.00;88.71
9774;BME280;4926;42.670;23.316;2023-11-18T13:07:47;94044.75;;;3.97;88.30
9774;BME280;4926;42.670;23.316;2023-11-18T13:10:14;94056.31;;;3.96;89.31
9774;BME280;4926;42.670;23.316;2023-11-18T13:12:42;94061.56;;;3.91;89.14
9774;BME280;4926;42.670;23.316;2023-11-18T13:15:13;94052.63;;;3.92;89.72
9774;BME280;4926;42.670;23.316;2023-11-18T13:17:57;94051.31;;;3.94;89.36
9774;BME280;4926;42.670;23.316;2023-11-18T13:20:34;94054.19;;;3.93;89.66
9774;BME280;4926;42.670;23.316;2023-11-18T13:23:02;94048.94;;;3.98;90.01
9774;BME280;4926;42.670;23.316;2023-11-18T13:25:34;94053.72;;;4.06;88.91
9774;BME280;4926;42.670;23.316;2023-11-18T13:28:04;94056.81;;;3.93;89.34
9774;BME280;4926;42.670;23.316;2023-11-18T13:30:35;94077.88;;;3.88;89.53
9774;BME280;4926;42.670;23.316;2023-11-18T13:33:02;94081.31;;;3.88;90.86
9774;BME280;4926;42.670;23.316;2023-11-18T13:35:30;94094.66;;;3.77;91.49
9774;BME280;4926;42.670;23.316;2023-11-18T13:37:58;94099.63;;;3.68;93.77